sensor_id;sensor_type;location;lat;lon;timestamp;P1;durP1;ratioP1;P2;durP2;ratioP2
33824;SDS011;20127;48.962;8.342;2023-09-30T00:00:15;6.53;;;1.77;;
33824;SDS011;20127;48.962;8.342;2023-09-30T00:03:18;4.88;;;1.65;;
33824;SDS011;20127;48.962;8.342;2023-09-30T00:06:19;2.53;;;1.60;;
33824;SDS011;20127;48.962;8.342;2023-09-30T00:09:21;2.72;;;1.65;;
33824;SDS011;20127;48.962;8.342;2023-09-30T00:12:23;5.40;;;1.42;;
33824;SDS011;20127;48.962;8.342;2023-09-30T00:15:25;3.95;;;2.35;;
33824;SDS011;20127;48.962;8.342;2023-09-30T00:18:28;2.05;;;1.35;;
33824;SDS011;20127;48.962;8.342;2023-09-30T00:21:29;4.65;;;1.23;;
33824;SDS011;20127;48.962;8.342;2023-09-30T00:24:31;4.97;;;1.83;;
33824;SDS011;20127;48.962;8.342;2023-09-30T00:27:34;4.18;;;1.75;;
33824;SDS011;20127;48.962;8.342;2023-09-30T00:30:35;1.58;;;1.10;;
33824;SDS011;20127;48.962;8.342;2023-09-30T00:33:39;3.53;;;1.48;;
33824;SDS011;20127;48.962;8.342;2023-09-30T00:36:41;3.72;;;2.80;;
33824;SDS011;20127;48.962;8.342;2023-09-30T00:39:43;1.92;;;1.20;;
33824;SDS011;20127;48.962;8.342;2023-09-30T00:42:45;1.88;;;1.50;;
33824;SDS011;20127;48.962;8.342;2023-09-30T00:45:47;3.30;;;1.33;;
33824;SDS011;20127;48.962;8.342;2023-09-30T00:48:51;3.58;;;1.30;;
33824;SDS011;20127;48.962;8.342;2023-09-30T00:51:54;2.35;;;1.52;;
33824;SDS011;20127;48.962;8.342;2023-09-30T00:54:56;5.35;;;1.20;;
33824;SDS011;20127;48.962;8.342;2023-09-30T00:57:57;3.72;;;1.90;;
33824;SDS011;20127;48.962;8.342;2023-09-30T01:00:59;2.92;;;1.92;;
33824;SDS011;20127;48.962;8.342;2023-09-30T01:04:02;4.47;;;1.77;;
33824;SDS011;20127;48.962;8.342;2023-09-30T01:07:05;3.28;;;1.00;;
33824;SDS011;20127;48.962;8.342;2023-09-30T01:10:06;2.55;;;1.30;;
33824;SDS011;20127;48.962;8.342;2023-09-30T01:13:09;3.25;;;2.00;;
33824;SDS011;20127;48.962;8.342;2023-09-30T01:16:10;2.40;;;1.45;;
33824;SDS011;20127;48.962;8.342;2023-09-30T01:19:13;2.58;;;1.08;;
33824;SDS011;20127;48.962;8.342;2023-09-30T01:22:16;1.63;;;1.38;;
33824;SDS011;20127;48.962;8.342;2023-09-30T01:25:18;3.05;;;1.45;;
33824;SDS011;20127;48.962;8.342;2023-09-30T01:28:20;1.70;;;1.60;;
33824;SDS011;20127;48.962;8.342;2023-09-30T01:31:23;2.10;;;1.80;;
33824;SDS011;20127;48.962;8.342;2023-09-30T01:34:25;2.50;;;1.50;;
33824;SDS011;20127;48.962;8.342;2023-09-30T01:37:28;4.00;;;2.13;;
33824;SDS011;20127;48.962;8.342;2023-09-30T01:40:30;4.30;;;2.85;;
33824;SDS011;20127;48.962;8.342;2023-09-30T01:43:32;2.05;;;1.45;;
33824;SDS011;20127;48.962;8.342;2023-09-30T01:46:35;1.75;;;1.25;;
33824;SDS011;20127;48.962;8.342;2023-09-30T01:49:37;4.38;;;2.33;;
33824;SDS011;20127;48.962;8.342;2023-09-30T01:52:40;1.63;;;1.38;;
33824;SDS011;20127;48.962;8.342;2023-09-30T01:55:42;1.42;;;1.33;;
33824;SDS011;20127;48.962;8.342;2023-09-30T01:58:44;3.05;;;1.60;;
33824;SDS011;20127;48.962;8.342;2023-09-30T02:01:46;4.85;;;1.80;;
33824;SDS011;20127;48.962;8.342;2023-09-30T02:04:48;2.05;;;1.25;;
33824;SDS011;20127;48.962;8.342;2023-09-30T02:07:51;2.33;;;1.80;;
33824;SDS011;20127;48.962;8.342;2023-09-30T02:10:53;2.75;;;1.58;;
33824;SDS011;20127;48.962;8.342;2023-09-30T02:13:55;4.07;;;2.17;;
33824;SDS011;20127;48.962;8.342;2023-09-30T02:20:54;2.45;;;1.67;;
33824;SDS011;20127;48.962;8.342;2023-09-30T02:23:57;3.65;;;1.85;;
33824;SDS011;20127;48.962;8.342;2023-09-30T02:26:58;2.42;;;1.80;;
33824;SDS011;20127;48.962;8.342;2023-09-30T02:30:00;2.80;;;1.67;;
33824;SDS011;20127;48.962;8.342;2023-09-30T02:33:02;1.60;;;1.48;;
33824;SDS011;20127;48.962;8.342;2023-09-30T02:36:06;1.98;;;1.58;;
33824;SDS011;20127;48.962;8.342;2023-09-30T02:39:10;3.08;;;1.40;;
33824;SDS011;20127;48.962;8.342;2023-09-30T02:42:12;5.82;;;1.85;;
33824;SDS011;20127;48.962;8.342;2023-09-30T02:45:14;4.55;;;1.90;;
33824;SDS011;20127;48.962;8.342;2023-09-30T02:48:17;4.00;;;1.65;;
33824;SDS011;20127;48.962;8.342;2023-09-30T02:51:19;2.33;;;1.40;;
33824;SDS011;20127;48.962;8.342;2023-09-30T02:54:22;2.33;;;1.83;;
33824;SDS011;20127;48.962;8.342;2023-09-30T02:57:23;2.47;;;1.30;;
33824;SDS011;20127;48.962;8.342;2023-09-30T03:00:27;5.03;;;1.95;;
33824;SDS011;20127;48.962;8.342;2023-09-30T03:03:32;5.63;;;1.85;;
33824;SDS011;20127;48.962;8.342;2023-09-30T03:06:34;6.40;;;2.22;;
33824;SDS011;20127;48.962;8.342;2023-09-30T03:09:38;3.83;;;1.55;;
33824;SDS011;20127;48.962;8.342;2023-09-30T03:12:40;5.75;;;1.63;;
33824;SDS011;20127;48.962;8.342;2023-09-30T03:15:42;1.88;;;1.40;;
33824;SDS011;20127;48.962;8.342;2023-09-30T03:18:44;2.40;;;1.35;;
33824;SDS011;20127;48.962;8.342;2023-09-30T03:21:45;4.30;;;1.77;;
33824;SDS011;20127;48.962;8.342;2023-09-30T03:24:48;2.00;;;1.67;;
33824;SDS011;20127;48.962;8.342;2023-09-30T03:27:50;2.58;;;1.30;;
33824;SDS011;20127;48.962;8.342;2023-09-30T03:30:52;5.82;;;2.47;;
33824;SDS011;20127;48.962;8.342;2023-09-30T03:33:53;3.85;;;2.08;;
33824;SDS011;20127;48.962;8.342;2023-09-30T03:36:55;3.42;;;1.90;;
33824;SDS011;20127;48.962;8.342;2023-09-30T03:40:00;3.53;;;1.55;;
33824;SDS011;20127;48.962;8.342;2023-09-30T03:43:11;3.90;;;1.63;;
33824;SDS011;20127;48.962;8.342;2023-09-30T03:46:13;1.85;;;1.17;;
33824;SDS011;20127;48.962;8.342;2023-09-30T03:49:15;3.05;;;1.52;;
33824;SDS011;20127;48.962;8.342;2023-09-30T03:52:19;1.92;;;1.42;;
33824;SDS011;20127;48.962;8.342;2023-09-30T03:55:24;3.83;;;1.70;;
33824;SDS011;20127;48.962;8.342;2023-09-30T03:58:26;2.60;;;1.85;;
33824;SDS011;20127;48.962;8.342;2023-09-30T04:01:27;3.75;;;2.35;;
33824;SDS011;20127;48.962;8.342;2023-09-30T04:04:29;3.47;;;1.83;;
33824;SDS011;20127;48.962;8.342;2023-09-30T04:07:31;3.25;;;2.05;;
33824;SDS011;20127;48.962;8.342;2023-09-30T04:10:34;5.75;;;2.03;;
33824;SDS011;20127;48.962;8.342;2023-09-30T04:13:36;4.43;;;1.95;;
33824;SDS011;20127;48.962;8.342;2023-09-30T04:16:37;2.25;;;1.30;;
33824;SDS011;20127;48.962;8.342;2023-09-30T04:19:39;3.80;;;2.60;;
33824;SDS011;20127;48.962;8.342;2023-09-30T04:22:41;6.97;;;2.35;;
33824;SDS011;20127;48.962;8.342;2023-09-30T04:25:47;3.58;;;2.17;;
33824;SDS011;20127;48.962;8.342;2023-09-30T04:28:49;2.88;;;1.70;;
33824;SDS011;20127;48.962;8.342;2023-09-30T04:31:51;2.80;;;1.77;;
33824;SDS011;20127;48.962;8.342;2023-09-30T04:34:54;3.15;;;2.10;;
33824;SDS011;20127;48.962;8.342;2023-09-30T04:37:56;3.13;;;2.40;;
33824;SDS011;20127;48.962;8.342;2023-09-30T04:41:02;4.03;;;1.95;;
33824;SDS011;20127;48.962;8.342;2023-09-30T04:44:07;3.33;;;2.17;;
33824;SDS011;20127;48.962;8.342;2023-09-30T04:47:10;2.30;;;1.73;;
33824;SDS011;20127;48.962;8.342;2023-09-30T04:50:12;3.72;;;1.77;;
33824;SDS011;20127;48.962;8.342;2023-09-30T04:53:16;2.90;;;1.75;;
33824;SDS011;20127;48.962;8.342;2023-09-30T04:56:19;3.97;;;1.73;;
33824;SDS011;20127;48.962;8.342;2023-09-30T04:59:20;2.53;;;2.17;;
33824;SDS011;20127;48.962;8.342;2023-09-30T05:02:25;4.90;;;2.33;;
33824;SDS011;20127;48.962;8.342;2023-09-30T05:05:27;3.65;;;1.95;;
33824;SDS011;20127;48.962;8.342;2023-09-30T05:08:29;2.55;;;2.00;;
33824;SDS011;20127;48.962;8.342;2023-09-30T05:11:32;3.28;;;2.35;;
33824;SDS011;20127;48.962;8.342;2023-09-30T05:14:35;2.88;;;1.92;;
33824;SDS011;20127;48.962;8.342;2023-09-30T05:17:38;2.95;;;2.30;;
33824;SDS011;20127;48.962;8.342;2023-09-30T05:20:40;4.47;;;2.45;;
33824;SDS011;20127;48.962;8.342;2023-09-30T05:23:42;2.85;;;2.03;;
33824;SDS011;20127;48.962;8.342;2023-09-30T05:26:45;4.00;;;1.92;;
33824;SDS011;20127;48.962;8.342;2023-09-30T05:29:46;5.28;;;2.42;;
33824;SDS011;20127;48.962;8.342;2023-09-30T05:32:48;2.55;;;2.00;;
33824;SDS011;20127;48.962;8.342;2023-09-30T05:35:52;3.95;;;2.35;;
33824;SDS011;20127;48.962;8.342;2023-09-30T05:38:54;7.75;;;2.85;;
33824;SDS011;20127;48.962;8.342;2023-09-30T05:41:57;4.68;;;2.55;;
33824;SDS011;20127;48.962;8.342;2023-09-30T05:44:59;3.22;;;2.22;;
33824;SDS011;20127;48.962;8.342;2023-09-30T05:48:01;4.35;;;2.17;;
33824;SDS011;20127;48.962;8.342;2023-09-30T05:51:06;4.63;;;2.65;;
33824;SDS011;20127;48.962;8.342;2023-09-30T05:54:08;5.55;;;2.50;;
33824;SDS011;20127;48.962;8.342;2023-09-30T05:57:11;4.03;;;2.33;;
33824;SDS011;20127;48.962;8.342;2023-09-30T06:00:14;4.78;;;2.92;;
33824;SDS011;20127;48.962;8.342;2023-09-30T06:03:20;5.75;;;2.28;;
33824;SDS011;20127;48.962;8.342;2023-09-30T06:06:22;4.70;;;2.88;;
33824;SDS011;20127;48.962;8.342;2023-09-30T06:09:24;4.20;;;3.10;;
33824;SDS011;20127;48.962;8.342;2023-09-30T06:12:30;6.07;;;3.20;;
33824;SDS011;20127;48.962;8.342;2023-09-30T06:15:32;5.30;;;3.15;;
33824;SDS011;20127;48.962;8.342;2023-09-30T06:18:33;5.68;;;3.97;;
33824;SDS011;20127;48.962;8.342;2023-09-30T06:21:35;5.75;;;3.08;;
33824;SDS011;20127;48.962;8.342;2023-09-30T06:24:39;5.18;;;3.65;;
33824;SDS011;20127;48.962;8.342;2023-09-30T06:27:42;5.80;;;2.72;;
33824;SDS011;20127;48.962;8.342;2023-09-30T06:30:44;6.72;;;3.47;;
33824;SDS011;20127;48.962;8.342;2023-09-30T06:33:46;6.63;;;3.92;;
33824;SDS011;20127;48.962;8.342;2023-09-30T06:36:48;4.45;;;3.10;;
33824;SDS011;20127;48.962;8.342;2023-09-30T06:39:50;9.85;;;3.47;;
33824;SDS011;20127;48.962;8.342;2023-09-30T06:42:53;4.70;;;3.35;;
33824;SDS011;20127;48.962;8.342;2023-09-30T06:45:54;6.53;;;4.22;;
33824;SDS011;20127;48.962;8.342;2023-09-30T06:48:56;4.82;;;3.17;;
33824;SDS011;20127;48.962;8.342;2023-09-30T06:51:58;4.60;;;3.08;;
33824;SDS011;20127;48.962;8.342;2023-09-30T06:55:00;6.55;;;4.00;;
33824;SDS011;20127;48.962;8.342;2023-09-30T06:58:03;6.20;;;3.90;;
33824;SDS011;20127;48.962;8.342;2023-09-30T07:01:07;6.75;;;3.65;;
33824;SDS011;20127;48.962;8.342;2023-09-30T07:04:09;11.50;;;4.97;;
33824;SDS011;20127;48.962;8.342;2023-09-30T07:07:11;3.65;;;3.20;;
33824;SDS011;20127;48.962;8.342;2023-09-30T07:10:13;7.05;;;4.15;;
33824;SDS011;20127;48.962;8.342;2023-09-30T07:13:17;8.27;;;3.65;;
33824;SDS011;20127;48.962;8.342;2023-09-30T07:16:19;8.90;;;4.05;;
33824;SDS011;20127;48.962;8.342;2023-09-30T07:19:20;6.22;;;4.05;;
33824;SDS011;20127;48.962;8.342;2023-09-30T07:22:22;7.60;;;3.78;;
33824;SDS011;20127;48.962;8.342;2023-09-30T07:25:24;4.50;;;3.05;;
33824;SDS011;20127;48.962;8.342;2023-09-30T07:28:27;4.40;;;2.72;;
33824;SDS011;20127;48.962;8.342;2023-09-30T07:31:28;4.90;;;3.17;;
33824;SDS011;20127;48.962;8.342;2023-09-30T07:34:34;6.40;;;3.42;;
33824;SDS011;20127;48.962;8.342;2023-09-30T07:37:36;6.60;;;4.32;;
33824;SDS011;20127;48.962;8.342;2023-09-30T07:40:38;7.75;;;4.28;;
33824;SDS011;20127;48.962;8.342;2023-09-30T07:43:41;8.82;;;3.42;;
33824;SDS011;20127;48.962;8.342;2023-09-30T07:46:42;14.45;;;4.05;;
33824;SDS011;20127;48.962;8.342;2023-09-30T07:49:44;8.95;;;4.75;;
33824;SDS011;20127;48.962;8.342;2023-09-30T07:52:46;6.75;;;4.45;;
33824;SDS011;20127;48.962;8.342;2023-09-30T07:55:48;7.68;;;3.90;;
33824;SDS011;20127;48.962;8.342;2023-09-30T07:58:51;5.32;;;4.03;;
33824;SDS011;20127;48.962;8.342;2023-09-30T08:01:53;6.25;;;3.60;;
33824;SDS011;20127;48.962;8.342;2023-09-30T08:04:57;8.48;;;6.10;;
33824;SDS011;20127;48.962;8.342;2023-09-30T08:07:59;5.65;;;3.60;;
33824;SDS011;20127;48.962;8.342;2023-09-30T08:11:02;9.25;;;3.88;;
33824;SDS011;20127;48.962;8.342;2023-09-30T08:14:06;8.35;;;3.72;;
33824;SDS011;20127;48.962;8.342;2023-09-30T08:17:09;7.50;;;4.43;;
33824;SDS011;20127;48.962;8.342;2023-09-30T08:20:11;4.72;;;3.63;;
33824;SDS011;20127;48.962;8.342;2023-09-30T08:23:13;7.75;;;3.42;;
33824;SDS011;20127;48.962;8.342;2023-09-30T08:26:15;7.00;;;3.33;;
33824;SDS011;20127;48.962;8.342;2023-09-30T08:29:18;9.02;;;4.35;;
33824;SDS011;20127;48.962;8.342;2023-09-30T08:32:20;8.82;;;5.05;;
33824;SDS011;20127;48.962;8.342;2023-09-30T08:35:22;8.70;;;5.30;;
33824;SDS011;20127;48.962;8.342;2023-09-30T08:38:23;9.48;;;3.67;;
33824;SDS011;20127;48.962;8.342;2023-09-30T08:41:28;7.90;;;3.60;;
33824;SDS011;20127;48.962;8.342;2023-09-30T08:44:33;4.57;;;3.95;;
33824;SDS011;20127;48.962;8.342;2023-09-30T08:47:36;8.68;;;3.45;;
33824;SDS011;20127;48.962;8.342;2023-09-30T08:50:38;10.75;;;3.95;;
33824;SDS011;20127;48.962;8.342;2023-09-30T08:53:42;6.28;;;4.25;;
33824;SDS011;20127;48.962;8.342;2023-09-30T08:56:47;9.48;;;3.38;;
33824;SDS011;20127;48.962;8.342;2023-09-30T08:59:51;5.72;;;2.63;;
33824;SDS011;20127;48.962;8.342;2023-09-30T09:02:54;5.18;;;3.35;;
33824;SDS011;20127;48.962;8.342;2023-09-30T09:05:56;4.65;;;2.67;;
33824;SDS011;20127;48.962;8.342;2023-09-30T09:09:12;8.18;;;2.95;;
33824;SDS011;20127;48.962;8.342;2023-09-30T09:12:18;4.70;;;3.47;;
33824;SDS011;20127;48.962;8.342;2023-09-30T09:15:22;4.10;;;2.70;;
33824;SDS011;20127;48.962;8.342;2023-09-30T09:18:30;5.22;;;2.35;;
33824;SDS011;20127;48.962;8.342;2023-09-30T09:21:34;6.85;;;2.75;;
33824;SDS011;20127;48.962;8.342;2023-09-30T09:24:36;9.15;;;2.80;;
33824;SDS011;20127;48.962;8.342;2023-09-30T09:27:39;5.35;;;2.78;;
33824;SDS011;20127;48.962;8.342;2023-09-30T09:30:42;5.18;;;2.95;;
33824;SDS011;20127;48.962;8.342;2023-09-30T09:33:44;4.50;;;2.90;;
33824;SDS011;20127;48.962;8.342;2023-09-30T09:36:48;6.30;;;3.58;;
33824;SDS011;20127;48.962;8.342;2023-09-30T09:39:50;5.28;;;2.40;;
33824;SDS011;20127;48.962;8.342;2023-09-30T09:42:53;4.63;;;2.35;;
33824;SDS011;20127;48.962;8.342;2023-09-30T09:45:57;4.45;;;2.70;;
33824;SDS011;20127;48.962;8.342;2023-09-30T09:49:03;4.65;;;1.75;;
33824;SDS011;20127;48.962;8.342;2023-09-30T09:52:05;8.60;;;2.33;;
33824;SDS011;20127;48.962;8.342;2023-09-30T09:55:07;2.85;;;2.22;;
33824;SDS011;20127;48.962;8.342;2023-09-30T09:58:11;4.65;;;2.50;;
33824;SDS011;20127;48.962;8.342;2023-09-30T10:01:16;6.15;;;2.90;;
33824;SDS011;20127;48.962;8.342;2023-09-30T10:04:19;2.95;;;2.13;;
33824;SDS011;20127;48.962;8.342;2023-09-30T10:07:21;4.10;;;1.90;;
33824;SDS011;20127;48.962;8.342;2023-09-30T10:10:26;3.25;;;2.10;;
33824;SDS011;20127;48.962;8.342;2023-09-30T10:16:54;4.97;;;2.13;;
33824;SDS011;20127;48.962;8.342;2023-09-30T10:20:05;6.95;;;2.47;;
33824;SDS011;20127;48.962;8.342;2023-09-30T10:23:17;7.40;;;2.90;;
33824;SDS011;20127;48.962;8.342;2023-09-30T10:26:24;4.25;;;2.30;;
33824;SDS011;20127;48.962;8.342;2023-09-30T10:29:31;5.47;;;3.17;;
33824;SDS011;20127;48.962;8.342;2023-09-30T10:36:15;6.80;;;2.20;;
33824;SDS011;20127;48.962;8.342;2023-09-30T10:42:54;6.30;;;3.25;;
33824;SDS011;20127;48.962;8.342;2023-09-30T10:45:57;5.20;;;3.55;;
33824;SDS011;20127;48.962;8.342;2023-09-30T10:52:21;3.58;;;1.70;;
33824;SDS011;20127;48.962;8.342;2023-09-30T10:55:23;6.55;;;2.58;;
33824;SDS011;20127;48.962;8.342;2023-09-30T10:58:38;3.10;;;2.42;;
33824;SDS011;20127;48.962;8.342;2023-09-30T11:01:40;4.05;;;2.28;;
33824;SDS011;20127;48.962;8.342;2023-09-30T11:04:47;3.75;;;2.17;;
33824;SDS011;20127;48.962;8.342;2023-09-30T11:07:49;8.45;;;2.65;;
33824;SDS011;20127;48.962;8.342;2023-09-30T11:10:53;5.47;;;2.13;;
33824;SDS011;20127;48.962;8.342;2023-09-30T11:13:55;5.05;;;2.17;;
33824;SDS011;20127;48.962;8.342;2023-09-30T11:16:57;4.32;;;2.50;;
33824;SDS011;20127;48.962;8.342;2023-09-30T11:20:03;5.40;;;2.00;;
33824;SDS011;20127;48.962;8.342;2023-09-30T11:23:06;4.70;;;2.20;;
33824;SDS011;20127;48.962;8.342;2023-09-30T11:26:12;4.80;;;3.53;;
33824;SDS011;20127;48.962;8.342;2023-09-30T11:29:31;4.00;;;2.25;;
33824;SDS011;20127;48.962;8.342;2023-09-30T11:32:33;8.43;;;4.10;;
33824;SDS011;20127;48.962;8.342;2023-09-30T11:35:36;5.75;;;3.28;;
33824;SDS011;20127;48.962;8.342;2023-09-30T11:38:43;3.45;;;2.65;;
33824;SDS011;20127;48.962;8.342;2023-09-30T11:41:46;7.63;;;3.10;;
33824;SDS011;20127;48.962;8.342;2023-09-30T11:44:47;4.85;;;2.80;;
33824;SDS011;20127;48.962;8.342;2023-09-30T11:47:50;3.97;;;2.58;;
33824;SDS011;20127;48.962;8.342;2023-09-30T11:50:53;5.95;;;2.65;;
33824;SDS011;20127;48.962;8.342;2023-09-30T11:53:56;7.28;;;2.67;;
33824;SDS011;20127;48.962;8.342;2023-09-30T11:56:59;5.57;;;2.72;;
33824;SDS011;20127;48.962;8.342;2023-09-30T12:00:03;4.13;;;2.00;;
33824;SDS011;20127;48.962;8.342;2023-09-30T12:03:13;4.95;;;2.42;;
33824;SDS011;20127;48.962;8.342;2023-09-30T12:06:16;3.83;;;2.22;;
33824;SDS011;20127;48.962;8.342;2023-09-30T12:09:17;6.22;;;3.00;;
33824;SDS011;20127;48.962;8.342;2023-09-30T12:12:23;3.83;;;2.70;;
33824;SDS011;20127;48.962;8.342;2023-09-30T12:15:25;2.42;;;1.77;;
33824;SDS011;20127;48.962;8.342;2023-09-30T12:18:27;3.05;;;1.52;;
33824;SDS011;20127;48.962;8.342;2023-09-30T12:21:30;6.53;;;3.00;;
33824;SDS011;20127;48.962;8.342;2023-09-30T12:24:31;6.18;;;2.80;;
33824;SDS011;20127;48.962;8.342;2023-09-30T12:27:33;3.97;;;3.03;;
33824;SDS011;20127;48.962;8.342;2023-09-30T12:30:35;4.55;;;2.55;;
33824;SDS011;20127;48.962;8.342;2023-09-30T12:33:37;6.10;;;2.72;;
33824;SDS011;20127;48.962;8.342;2023-09-30T12:36:40;3.88;;;2.67;;
33824;SDS011;20127;48.962;8.342;2023-09-30T12:39:42;5.97;;;2.67;;
33824;SDS011;20127;48.962;8.342;2023-09-30T12:42:45;4.20;;;2.30;;
33824;SDS011;20127;48.962;8.342;2023-09-30T12:45:47;5.18;;;2.58;;
33824;SDS011;20127;48.962;8.342;2023-09-30T12:48:49;5.53;;;2.40;;
33824;SDS011;20127;48.962;8.342;2023-09-30T12:51:52;5.05;;;2.67;;
33824;SDS011;20127;48.962;8.342;2023-09-30T12:54:53;4.95;;;2.58;;
33824;SDS011;20127;48.962;8.342;2023-09-30T12:57:55;4.28;;;2.90;;
33824;SDS011;20127;48.962;8.342;2023-09-30T13:00:57;5.38;;;3.25;;
33824;SDS011;20127;48.962;8.342;2023-09-30T13:03:59;4.43;;;1.98;;
33824;SDS011;20127;48.962;8.342;2023-09-30T13:07:02;8.95;;;2.00;;
33824;SDS011;20127;48.962;8.342;2023-09-30T13:10:04;5.00;;;2.30;;
33824;SDS011;20127;48.962;8.342;2023-09-30T13:13:08;5.70;;;3.15;;
33824;SDS011;20127;48.962;8.342;2023-09-30T13:16:10;5.40;;;2.55;;
33824;SDS011;20127;48.962;8.342;2023-09-30T13:19:12;4.07;;;2.88;;
33824;SDS011;20127;48.962;8.342;2023-09-30T13:22:17;6.55;;;2.50;;
33824;SDS011;20127;48.962;8.342;2023-09-30T13:25:19;6.57;;;3.45;;
33824;SDS011;20127;48.962;8.342;2023-09-30T13:28:21;6.32;;;3.28;;
33824;SDS011;20127;48.962;8.342;2023-09-30T13:31:22;8.85;;;3.40;;
33824;SDS011;20127;48.962;8.342;2023-09-30T13:34:24;6.07;;;3.42;;
33824;SDS011;20127;48.962;8.342;2023-09-30T13:37:27;6.28;;;3.08;;
33824;SDS011;20127;48.962;8.342;2023-09-30T13:40:33;10.65;;;3.72;;
33824;SDS011;20127;48.962;8.342;2023-09-30T13:43:34;5.65;;;2.72;;
33824;SDS011;20127;48.962;8.342;2023-09-30T13:46:36;8.95;;;3.63;;
33824;SDS011;20127;48.962;8.342;2023-09-30T13:49:38;7.40;;;3.38;;
33824;SDS011;20127;48.962;8.342;2023-09-30T13:52:41;5.03;;;2.67;;
33824;SDS011;20127;48.962;8.342;2023-09-30T13:55:43;8.65;;;2.78;;
33824;SDS011;20127;48.962;8.342;2023-09-30T13:58:45;5.32;;;2.97;;
33824;SDS011;20127;48.962;8.342;2023-09-30T14:01:48;5.47;;;2.80;;
33824;SDS011;20127;48.962;8.342;2023-09-30T14:04:50;7.32;;;3.47;;
33824;SDS011;20127;48.962;8.342;2023-09-30T14:07:54;6.03;;;2.90;;
33824;SDS011;20127;48.962;8.342;2023-09-30T14:10:56;7.00;;;3.15;;
33824;SDS011;20127;48.962;8.342;2023-09-30T14:13:58;5.60;;;2.72;;
33824;SDS011;20127;48.962;8.342;2023-09-30T14:17:00;5.95;;;3.42;;
33824;SDS011;20127;48.962;8.342;2023-09-30T14:20:07;8.20;;;3.42;;
33824;SDS011;20127;48.962;8.342;2023-09-30T14:23:13;7.93;;;4.60;;
33824;SDS011;20127;48.962;8.342;2023-09-30T14:26:15;6.57;;;3.35;;
33824;SDS011;20127;48.962;8.342;2023-09-30T14:29:16;5.45;;;2.88;;
33824;SDS011;20127;48.962;8.342;2023-09-30T14:32:18;5.45;;;3.08;;
33824;SDS011;20127;48.962;8.342;2023-09-30T14:35:20;9.32;;;3.97;;
33824;SDS011;20127;48.962;8.342;2023-09-30T14:38:23;6.75;;;3.88;;
33824;SDS011;20127;48.962;8.342;2023-09-30T14:41:25;6.28;;;3.85;;
33824;SDS011;20127;48.962;8.342;2023-09-30T14:44:27;6.53;;;3.10;;
33824;SDS011;20127;48.962;8.342;2023-09-30T14:47:29;5.55;;;3.25;;
33824;SDS011;20127;48.962;8.342;2023-09-30T14:50:30;6.32;;;3.67;;
33824;SDS011;20127;48.962;8.342;2023-09-30T14:53:34;8.20;;;3.63;;
33824;SDS011;20127;48.962;8.342;2023-09-30T14:56:35;8.07;;;3.40;;
33824;SDS011;20127;48.962;8.342;2023-09-30T14:59:37;8.38;;;3.50;;
33824;SDS011;20127;48.962;8.342;2023-09-30T15:02:39;8.65;;;4.82;;
33824;SDS011;20127;48.962;8.342;2023-09-30T15:05:41;6.75;;;4.13;;
33824;SDS011;20127;48.962;8.342;2023-09-30T15:08:44;9.40;;;4.65;;
33824;SDS011;20127;48.962;8.342;2023-09-30T15:11:46;9.20;;;3.67;;
33824;SDS011;20127;48.962;8.342;2023-09-30T15:14:47;7.78;;;3.35;;
33824;SDS011;20127;48.962;8.342;2023-09-30T15:17:49;10.00;;;3.70;;
33824;SDS011;20127;48.962;8.342;2023-09-30T15:20:53;8.35;;;3.85;;
33824;SDS011;20127;48.962;8.342;2023-09-30T15:23:59;6.80;;;3.47;;
33824;SDS011;20127;48.962;8.342;2023-09-30T15:27:02;6.72;;;3.83;;
33824;SDS011;20127;48.962;8.342;2023-09-30T15:30:04;10.13;;;5.78;;
33824;SDS011;20127;48.962;8.342;2023-09-30T15:33:07;6.70;;;2.78;;
33824;SDS011;20127;48.962;8.342;2023-09-30T15:36:09;8.38;;;4.07;;
33824;SDS011;20127;48.962;8.342;2023-09-30T15:39:13;5.55;;;3.53;;
33824;SDS011;20127;48.962;8.342;2023-09-30T15:42:16;5.00;;;2.67;;
33824;SDS011;20127;48.962;8.342;2023-09-30T15:45:18;8.55;;;5.32;;
33824;SDS011;20127;48.962;8.342;2023-09-30T15:48:23;9.32;;;3.40;;
33824;SDS011;20127;48.962;8.342;2023-09-30T15:51:25;6.50;;;2.88;;
33824;SDS011;20127;48.962;8.342;2023-09-30T15:54:29;6.22;;;3.55;;
33824;SDS011;20127;48.962;8.342;2023-09-30T15:57:31;6.82;;;3.75;;
33824;SDS011;20127;48.962;8.342;2023-09-30T16:00:35;6.00;;;3.65;;
33824;SDS011;20127;48.962;8.342;2023-09-30T16:03:38;7.47;;;3.78;;
33824;SDS011;20127;48.962;8.342;2023-09-30T16:06:43;5.80;;;3.88;;
33824;SDS011;20127;48.962;8.342;2023-09-30T16:09:46;4.47;;;2.88;;
33824;SDS011;20127;48.962;8.342;2023-09-30T16:12:48;6.60;;;3.05;;
33824;SDS011;20127;48.962;8.342;2023-09-30T16:15:50;5.57;;;2.97;;
33824;SDS011;20127;48.962;8.342;2023-09-30T16:18:53;4.97;;;3.65;;
33824;SDS011;20127;48.962;8.342;2023-09-30T16:21:55;7.93;;;3.65;;
33824;SDS011;20127;48.962;8.342;2023-09-30T16:24:58;6.28;;;3.47;;
33824;SDS011;20127;48.962;8.342;2023-09-30T16:28:02;6.32;;;3.05;;
33824;SDS011;20127;48.962;8.342;2023-09-30T16:31:05;8.10;;;5.30;;
33824;SDS011;20127;48.962;8.342;2023-09-30T16:34:07;5.50;;;3.15;;
33824;SDS011;20127;48.962;8.342;2023-09-30T16:37:11;7.53;;;2.90;;
33824;SDS011;20127;48.962;8.342;2023-09-30T16:40:14;9.73;;;4.18;;
33824;SDS011;20127;48.962;8.342;2023-09-30T16:43:19;7.20;;;3.20;;
33824;SDS011;20127;48.962;8.342;2023-09-30T16:46:21;12.32;;;4.25;;
33824;SDS011;20127;48.962;8.342;2023-09-30T16:49:26;10.55;;;4.70;;
33824;SDS011;20127;48.962;8.342;2023-09-30T16:52:28;9.30;;;5.15;;
33824;SDS011;20127;48.962;8.342;2023-09-30T16:55:34;8.15;;;3.63;;
33824;SDS011;20127;48.962;8.342;2023-09-30T16:58:37;7.72;;;4.15;;
33824;SDS011;20127;48.962;8.342;2023-09-30T17:01:41;9.07;;;4.35;;
33824;SDS011;20127;48.962;8.342;2023-09-30T17:04:43;8.95;;;3.85;;
33824;SDS011;20127;48.962;8.342;2023-09-30T17:07:46;7.60;;;3.28;;
33824;SDS011;20127;48.962;8.342;2023-09-30T17:10:49;11.57;;;4.47;;
33824;SDS011;20127;48.962;8.342;2023-09-30T17:13:51;9.77;;;4.60;;
33824;SDS011;20127;48.962;8.342;2023-09-30T17:16:53;7.03;;;3.80;;
33824;SDS011;20127;48.962;8.342;2023-09-30T17:19:56;8.50;;;4.03;;
33824;SDS011;20127;48.962;8.342;2023-09-30T17:22:58;6.63;;;3.38;;
33824;SDS011;20127;48.962;8.342;2023-09-30T17:26:02;6.78;;;3.58;;
33824;SDS011;20127;48.962;8.342;2023-09-30T17:29:04;4.45;;;2.95;;
33824;SDS011;20127;48.962;8.342;2023-09-30T17:32:06;4.45;;;3.17;;
33824;SDS011;20127;48.962;8.342;2023-09-30T17:35:09;7.88;;;3.92;;
33824;SDS011;20127;48.962;8.342;2023-09-30T17:38:12;8.20;;;4.55;;
33824;SDS011;20127;48.962;8.342;2023-09-30T17:41:15;7.32;;;3.25;;
33824;SDS011;20127;48.962;8.342;2023-09-30T17:44:17;10.20;;;4.13;;
33824;SDS011;20127;48.962;8.342;2023-09-30T17:47:19;5.13;;;3.38;;
33824;SDS011;20127;48.962;8.342;2023-09-30T17:50:21;6.35;;;4.28;;
33824;SDS011;20127;48.962;8.342;2023-09-30T17:53:25;6.68;;;3.60;;
33824;SDS011;20127;48.962;8.342;2023-09-30T17:56:28;8.55;;;4.07;;
33824;SDS011;20127;48.962;8.342;2023-09-30T17:59:30;9.95;;;3.80;;
33824;SDS011;20127;48.962;8.342;2023-09-30T18:02:34;9.25;;;4.18;;
33824;SDS011;20127;48.962;8.342;2023-09-30T18:05:36;11.40;;;4.32;;
33824;SDS011;20127;48.962;8.342;2023-09-30T18:08:39;6.80;;;3.75;;
33824;SDS011;20127;48.962;8.342;2023-09-30T18:11:43;8.80;;;3.92;;
33824;SDS011;20127;48.962;8.342;2023-09-30T18:14:45;7.28;;;4.45;;
33824;SDS011;20127;48.962;8.342;2023-09-30T18:17:47;10.02;;;4.35;;
33824;SDS011;20127;48.962;8.342;2023-09-30T18:20:48;9.13;;;5.00;;
33824;SDS011;20127;48.962;8.342;2023-09-30T18:23:51;4.63;;;3.10;;
33824;SDS011;20127;48.962;8.342;2023-09-30T18:26:54;10.18;;;4.15;;
33824;SDS011;20127;48.962;8.342;2023-09-30T18:29:56;10.60;;;5.70;;
33824;SDS011;20127;48.962;8.342;2023-09-30T18:32:58;11.05;;;4.20;;
33824;SDS011;20127;48.962;8.342;2023-09-30T18:36:01;8.40;;;4.18;;
33824;SDS011;20127;48.962;8.342;2023-09-30T18:39:03;9.15;;;3.78;;